Capitol Logistics 970


EBLG
Liège Airport
Liege, BE
HKJK
Jomo Kenyatta International Airport
Nairobi, KE

Route Details

Aircraft Information
Primary: Boeing 767-300BDSF
Backup: Not Available
Route Data
Distance: 3502nm
Sched. Duration: 7h 20m
Avg. Duration: 7h 94m (+75m)
Times Flown: 2
Recm'd Route: Not Available
Planned Altitude: 35,000ft
Origin Wx: EBLG 270050Z 22009KT 9999 BKN033 02/01 Q1007 NOSIG
Dest. Wx: HKJK 270100Z 06007KT 330V090 9000 RA BKN004 OVC015 17/17 Q1022 NOSIG
Notes:

Financial History
Total Freight: 203,441lbs
Average Load: 101,721lbs/flt
Fuel Used: 186,498lbs
Avg. Fuel Used: 93,249lbs/flt
Fuel Expense: $207,013
Avg. Fuel Expense: $103,506
Avg. Fuel Cost: $1.11/lbs
Total Gross Income: $1,997,791
Pilot Pay: $468
Total Expenses: $215,865
Total Revenue: $1,571,134
Average Revenue: $998,895.31